sensor_id;sensor_type;location;lat;lon;timestamp;temperature;humidity
57030;DHT22;42920;45.306;20.448;2023-08-07T00:00:23;486.70;2380.80
57030;DHT22;42920;45.306;20.448;2023-08-07T00:02:48;486.70;2380.80
57030;DHT22;42920;45.306;20.448;2023-08-07T00:05:15;486.60;2380.80
57030;DHT22;42920;45.306;20.448;2023-08-07T00:07:42;486.70;2380.80
57030;DHT22;42920;45.306;20.448;2023-08-07T00:10:09;486.70;2380.80
57030;DHT22;42920;45.306;20.448;2023-08-07T00:12:35;486.70;2380.80
57030;DHT22;42920;45.306;20.448;2023-08-07T00:15:04;486.70;2380.80
57030;DHT22;42920;45.306;20.448;2023-08-07T00:17:31;486.70;2380.80
57030;DHT22;42920;45.306;20.448;2023-08-07T00:19:56;486.70;2380.80
57030;DHT22;42920;45.306;20.448;2023-08-07T00:22:22;486.70;2380.80
57030;DHT22;42920;45.306;20.448;2023-08-07T00:24:48;486.70;2380.80
57030;DHT22;42920;45.306;20.448;2023-08-07T00:27:14;486.70;2380.80
57030;DHT22;42920;45.306;20.448;2023-08-07T00:29:40;486.70;2380.80
57030;DHT22;42920;45.306;20.448;2023-08-07T00:32:06;486.70;2380.80
57030;DHT22;42920;45.306;20.448;2023-08-07T00:34:32;486.70;2380.80
57030;DHT22;42920;45.306;20.448;2023-08-07T00:36:58;486.70;2380.80
57030;DHT22;42920;45.306;20.448;2023-08-07T00:39:24;486.70;2380.80
57030;DHT22;42920;45.306;20.448;2023-08-07T00:41:49;486.70;2380.80
57030;DHT22;42920;45.306;20.448;2023-08-07T00:44:15;486.80;2380.80
57030;DHT22;42920;45.306;20.448;2023-08-07T00:46:42;486.60;2380.80
57030;DHT22;42920;45.306;20.448;2023-08-07T00:49:09;486.60;2380.80
57030;DHT22;42920;45.306;20.448;2023-08-07T00:51:37;486.60;2380.80
57030;DHT22;42920;45.306;20.448;2023-08-07T00:54:04;486.50;2380.80
57030;DHT22;42920;45.306;20.448;2023-08-07T00:56:31;486.50;2380.80
57030;DHT22;42920;45.306;20.448;2023-08-07T00:59:00;486.40;2380.80
57030;DHT22;42920;45.306;20.448;2023-08-07T01:01:26;486.40;2380.80
57030;DHT22;42920;45.306;20.448;2023-08-07T01:03:52;486.40;2380.80
57030;DHT22;42920;45.306;20.448;2023-08-07T01:06:18;486.40;2380.80
57030;DHT22;42920;45.306;20.448;2023-08-07T01:08:45;486.40;2380.80
57030;DHT22;42920;45.306;20.448;2023-08-07T01:19:47;461.70;2380.80
57030;DHT22;42920;45.306;20.448;2023-08-07T01:22:16;486.40;2380.80
57030;DHT22;42920;45.306;20.448;2023-08-07T01:24:47;486.40;2380.80
57030;DHT22;42920;45.306;20.448;2023-08-07T01:32:32;486.50;2380.80
57030;DHT22;42920;45.306;20.448;2023-08-07T01:35:02;486.50;2380.80
57030;DHT22;42920;45.306;20.448;2023-08-07T01:37:30;486.50;2380.80
57030;DHT22;42920;45.306;20.448;2023-08-07T01:39:59;486.50;2380.80
57030;DHT22;42920;45.306;20.448;2023-08-07T01:42:26;486.50;2380.80
57030;DHT22;42920;45.306;20.448;2023-08-07T01:44:52;486.50;2380.80
57030;DHT22;42920;45.306;20.448;2023-08-07T01:47:18;486.40;2380.80
57030;DHT22;42920;45.306;20.448;2023-08-07T01:49:44;486.40;2380.80
57030;DHT22;42920;45.306;20.448;2023-08-07T01:52:09;461.70;2380.80
57030;DHT22;42920;45.306;20.448;2023-08-07T01:54:36;461.70;2380.80
57030;DHT22;42920;45.306;20.448;2023-08-07T01:57:02;461.70;2380.80
57030;DHT22;42920;45.306;20.448;2023-08-07T01:59:28;461.70;2380.80
57030;DHT22;42920;45.306;20.448;2023-08-07T02:01:53;461.70;2380.80
57030;DHT22;42920;45.306;20.448;2023-08-07T02:04:19;461.70;2380.80
57030;DHT22;42920;45.306;20.448;2023-08-07T02:06:45;461.70;2380.80
57030;DHT22;42920;45.306;20.448;2023-08-07T02:09:10;486.40;2380.80
57030;DHT22;42920;45.306;20.448;2023-08-07T02:11:36;486.40;2380.80
57030;DHT22;42920;45.306;20.448;2023-08-07T02:14:02;486.50;2380.80
57030;DHT22;42920;45.306;20.448;2023-08-07T02:16:28;486.50;2380.80
57030;DHT22;42920;45.306;20.448;2023-08-07T02:18:54;486.60;2380.80
57030;DHT22;42920;45.306;20.448;2023-08-07T02:21:19;486.60;2380.80
57030;DHT22;42920;45.306;20.448;2023-08-07T02:23:45;486.50;2380.80
57030;DHT22;42920;45.306;20.448;2023-08-07T02:26:11;486.50;2380.80
57030;DHT22;42920;45.306;20.448;2023-08-07T02:28:36;486.50;2380.80
57030;DHT22;42920;45.306;20.448;2023-08-07T02:31:02;486.40;2380.80
57030;DHT22;42920;45.306;20.448;2023-08-07T02:33:28;486.40;2380.80
57030;DHT22;42920;45.306;20.448;2023-08-07T02:35:56;486.50;2380.80
57030;DHT22;42920;45.306;20.448;2023-08-07T02:38:22;486.40;2380.80
57030;DHT22;42920;45.306;20.448;2023-08-07T02:40:47;486.40;2380.80
57030;DHT22;42920;45.306;20.448;2023-08-07T02:43:13;461.70;2380.80
57030;DHT22;42920;45.306;20.448;2023-08-07T02:45:39;461.50;2380.80
57030;DHT22;42920;45.306;20.448;2023-08-07T02:48:04;461.50;2380.80
57030;DHT22;42920;45.306;20.448;2023-08-07T02:50:31;461.70;2380.80
57030;DHT22;42920;45.306;20.448;2023-08-07T02:52:59;461.50;2380.80
57030;DHT22;42920;45.306;20.448;2023-08-07T02:55:24;461.50;2380.80
57030;DHT22;42920;45.306;20.448;2023-08-07T02:57:50;461.50;2380.80
57030;DHT22;42920;45.306;20.448;2023-08-07T03:00:16;461.70;2380.80
57030;DHT22;42920;45.306;20.448;2023-08-07T03:02:41;461.60;2380.80
57030;DHT22;42920;45.306;20.448;2023-08-07T03:05:08;461.50;2380.80
57030;DHT22;42920;45.306;20.448;2023-08-07T03:10:00;461.20;2380.80
57030;DHT22;42920;45.306;20.448;2023-08-07T03:12:26;461.20;2380.80
57030;DHT22;42920;45.306;20.448;2023-08-07T03:14:51;461.40;2380.80
57030;DHT22;42920;45.306;20.448;2023-08-07T03:17:17;461.40;2380.80
57030;DHT22;42920;45.306;20.448;2023-08-07T03:19:43;461.40;2380.80
57030;DHT22;42920;45.306;20.448;2023-08-07T03:22:09;461.40;2380.80
57030;DHT22;42920;45.306;20.448;2023-08-07T03:24:35;461.50;2380.80
57030;DHT22;42920;45.306;20.448;2023-08-07T03:27:01;461.40;2380.80
57030;DHT22;42920;45.306;20.448;2023-08-07T03:29:27;461.40;2380.80
57030;DHT22;42920;45.306;20.448;2023-08-07T03:31:52;461.20;2380.80
57030;DHT22;42920;45.306;20.448;2023-08-07T03:34:18;461.20;2380.80
57030;DHT22;42920;45.306;20.448;2023-08-07T03:36:45;461.20;2380.80
57030;DHT22;42920;45.306;20.448;2023-08-07T03:39:10;461.20;2380.80
57030;DHT22;42920;45.306;20.448;2023-08-07T03:41:37;461.10;2380.80
57030;DHT22;42920;45.306;20.448;2023-08-07T03:44:03;460.90;2380.80
57030;DHT22;42920;45.306;20.448;2023-08-07T03:46:29;460.90;2380.80
57030;DHT22;42920;45.306;20.448;2023-08-07T03:48:55;460.90;2380.80
57030;DHT22;42920;45.306;20.448;2023-08-07T03:51:20;460.80;2380.80
57030;DHT22;42920;45.306;20.448;2023-08-07T03:53:46;436.10;2355.20
57030;DHT22;42920;45.306;20.448;2023-08-07T03:56:12;460.90;2380.80
57030;DHT22;42920;45.306;20.448;2023-08-07T03:58:37;436.10;2355.20
57030;DHT22;42920;45.306;20.448;2023-08-07T04:01:03;460.80;2380.80
57030;DHT22;42920;45.306;20.448;2023-08-07T04:03:29;460.80;2380.80
57030;DHT22;42920;45.306;20.448;2023-08-07T04:05:55;460.80;2380.80
57030;DHT22;42920;45.306;20.448;2023-08-07T04:08:21;460.80;2380.80
57030;DHT22;42920;45.306;20.448;2023-08-07T04:11:05;460.90;2380.80
57030;DHT22;42920;45.306;20.448;2023-08-07T04:13:32;436.10;2355.20
57030;DHT22;42920;45.306;20.448;2023-08-07T04:15:58;460.80;2380.80
57030;DHT22;42920;45.306;20.448;2023-08-07T04:18:26;436.10;2355.20
57030;DHT22;42920;45.306;20.448;2023-08-07T04:20:53;435.90;2355.20
57030;DHT22;42920;45.306;20.448;2023-08-07T04:23:20;435.90;2355.20
57030;DHT22;42920;45.306;20.448;2023-08-07T04:25:47;435.90;2355.20
57030;DHT22;42920;45.306;20.448;2023-08-07T04:28:13;436.10;2355.20
57030;DHT22;42920;45.306;20.448;2023-08-07T04:30:39;460.80;2380.80
57030;DHT22;42920;45.306;20.448;2023-08-07T04:33:04;460.90;2380.80
57030;DHT22;42920;45.306;20.448;2023-08-07T04:35:30;461.00;2380.80
57030;DHT22;42920;45.306;20.448;2023-08-07T04:37:56;461.00;2380.80
57030;DHT22;42920;45.306;20.448;2023-08-07T04:40:22;461.10;2380.80
57030;DHT22;42920;45.306;20.448;2023-08-07T04:42:51;461.20;2380.80
57030;DHT22;42920;45.306;20.448;2023-08-07T04:45:16;461.10;2380.80
57030;DHT22;42920;45.306;20.448;2023-08-07T04:47:42;461.10;2380.80
57030;DHT22;42920;45.306;20.448;2023-08-07T04:50:08;461.10;2380.80
57030;DHT22;42920;45.306;20.448;2023-08-07T04:52:37;461.20;2380.80
57030;DHT22;42920;45.306;20.448;2023-08-07T04:55:03;461.30;2380.80
57030;DHT22;42920;45.306;20.448;2023-08-07T04:57:29;461.40;2380.80
57030;DHT22;42920;45.306;20.448;2023-08-07T04:59:55;461.40;2380.80
57030;DHT22;42920;45.306;20.448;2023-08-07T05:02:21;461.40;2380.80
57030;DHT22;42920;45.306;20.448;2023-08-07T05:04:46;461.30;2380.80
57030;DHT22;42920;45.306;20.448;2023-08-07T05:07:12;461.40;2380.80
57030;DHT22;42920;45.306;20.448;2023-08-07T05:09:38;461.50;2380.80
57030;DHT22;42920;45.306;20.448;2023-08-07T05:14:30;486.60;2380.80
57030;DHT22;42920;45.306;20.448;2023-08-07T05:16:56;486.50;2380.80
57030;DHT22;42920;45.306;20.448;2023-08-07T05:19:22;486.50;2380.80
57030;DHT22;42920;45.306;20.448;2023-08-07T05:21:48;486.70;2380.80
57030;DHT22;42920;45.306;20.448;2023-08-07T05:24:17;486.80;2380.80
57030;DHT22;42920;45.306;20.448;2023-08-07T05:26:42;486.80;2380.80
57030;DHT22;42920;45.306;20.448;2023-08-07T05:29:08;486.90;2380.80
57030;DHT22;42920;45.306;20.448;2023-08-07T05:31:34;486.80;2380.80
57030;DHT22;42920;45.306;20.448;2023-08-07T05:34:00;487.00;2380.80
57030;DHT22;42920;45.306;20.448;2023-08-07T05:36:26;487.00;2380.80
57030;DHT22;42920;45.306;20.448;2023-08-07T05:38:51;486.90;2380.80
57030;DHT22;42920;45.306;20.448;2023-08-07T05:41:17;487.00;2380.80
57030;DHT22;42920;45.306;20.448;2023-08-07T05:43:43;487.00;2380.80
57030;DHT22;42920;45.306;20.448;2023-08-07T05:46:09;487.20;2380.80
57030;DHT22;42920;45.306;20.448;2023-08-07T05:48:34;487.30;2380.80
57030;DHT22;42920;45.306;20.448;2023-08-07T05:51:00;487.30;2380.80
57030;DHT22;42920;45.306;20.448;2023-08-07T05:53:26;487.30;2380.80
57030;DHT22;42920;45.306;20.448;2023-08-07T05:55:52;487.30;2380.80
57030;DHT22;42920;45.306;20.448;2023-08-07T05:58:18;512.00;2380.80
57030;DHT22;42920;45.306;20.448;2023-08-07T06:00:44;512.20;2380.80
57030;DHT22;42920;45.306;20.448;2023-08-07T06:03:10;512.30;2380.80
57030;DHT22;42920;45.306;20.448;2023-08-07T06:05:35;512.40;2380.80
57030;DHT22;42920;45.306;20.448;2023-08-07T06:08:01;512.60;2380.80
57030;DHT22;42920;45.306;20.448;2023-08-07T06:10:27;512.70;2380.80
57030;DHT22;42920;45.306;20.448;2023-08-07T06:12:53;512.90;2380.80
57030;DHT22;42920;45.306;20.448;2023-08-07T06:15:19;537.60;2406.40
57030;DHT22;42920;45.306;20.448;2023-08-07T06:17:45;537.80;2406.40
57030;DHT22;42920;45.306;20.448;2023-08-07T06:20:11;538.00;2406.40
57030;DHT22;42920;45.306;20.448;2023-08-07T06:22:38;538.10;2406.40
57030;DHT22;42920;45.306;20.448;2023-08-07T06:25:04;538.20;2406.40
57030;DHT22;42920;45.306;20.448;2023-08-07T06:27:32;538.10;2406.40
57030;DHT22;42920;45.306;20.448;2023-08-07T06:29:58;538.20;2406.40
57030;DHT22;42920;45.306;20.448;2023-08-07T06:32:25;538.10;2406.40
57030;DHT22;42920;45.306;20.448;2023-08-07T06:34:52;538.30;2406.40
57030;DHT22;42920;45.306;20.448;2023-08-07T06:37:18;538.20;2406.40
57030;DHT22;42920;45.306;20.448;2023-08-07T06:39:43;538.50;2406.40
57030;DHT22;42920;45.306;20.448;2023-08-07T06:42:09;538.50;2406.40
57030;DHT22;42920;45.306;20.448;2023-08-07T06:44:35;538.50;2406.40
57030;DHT22;42920;45.306;20.448;2023-08-07T06:47:01;563.30;2432.00
57030;DHT22;42920;45.306;20.448;2023-08-07T06:49:27;563.50;2432.00
57030;DHT22;42920;45.306;20.448;2023-08-07T06:51:52;563.30;2432.00
57030;DHT22;42920;45.306;20.448;2023-08-07T06:54:18;563.40;2432.00
57030;DHT22;42920;45.306;20.448;2023-08-07T06:56:44;563.30;2432.00
57030;DHT22;42920;45.306;20.448;2023-08-07T06:59:10;563.50;2432.00
57030;DHT22;42920;45.306;20.448;2023-08-07T07:01:36;563.60;2432.00
57030;DHT22;42920;45.306;20.448;2023-08-07T07:04:01;564.10;2432.00
57030;DHT22;42920;45.306;20.448;2023-08-07T07:06:27;564.10;2432.00
57030;DHT22;42920;45.306;20.448;2023-08-07T07:08:53;564.10;2432.00
57030;DHT22;42920;45.306;20.448;2023-08-07T07:11:22;563.90;2432.00
57030;DHT22;42920;45.306;20.448;2023-08-07T07:13:50;563.80;2432.00
57030;DHT22;42920;45.306;20.448;2023-08-07T07:16:20;563.50;2432.00
57030;DHT22;42920;45.306;20.448;2023-08-07T07:18:50;563.60;2432.00
57030;DHT22;42920;45.306;20.448;2023-08-07T07:21:16;563.60;2432.00
57030;DHT22;42920;45.306;20.448;2023-08-07T07:23:41;563.70;2432.00
57030;DHT22;42920;45.306;20.448;2023-08-07T07:26:07;563.70;2432.00
57030;DHT22;42920;45.306;20.448;2023-08-07T07:28:33;563.90;2432.00
57030;DHT22;42920;45.306;20.448;2023-08-07T07:30:59;563.80;2432.00
57030;DHT22;42920;45.306;20.448;2023-08-07T07:33:24;588.80;2432.00
57030;DHT22;42920;45.306;20.448;2023-08-07T07:35:51;589.30;2432.00
57030;DHT22;42920;45.306;20.448;2023-08-07T07:38:16;589.40;2432.00
57030;DHT22;42920;45.306;20.448;2023-08-07T07:40:42;589.70;2432.00
57030;DHT22;42920;45.306;20.448;2023-08-07T07:43:08;614.50;2432.00
57030;DHT22;42920;45.306;20.448;2023-08-07T07:45:33;614.50;2432.00
57030;DHT22;42920;45.306;20.448;2023-08-07T07:48:04;614.50;2432.00
57030;DHT22;42920;45.306;20.448;2023-08-07T07:50:32;614.80;2355.20
57030;DHT22;42920;45.306;20.448;2023-08-07T07:52:58;615.10;2380.80
57030;DHT22;42920;45.306;20.448;2023-08-07T07:55:24;640.00;2406.40
57030;DHT22;42920;45.306;20.448;2023-08-07T07:57:51;615.30;2380.80
57030;DHT22;42920;45.306;20.448;2023-08-07T08:00:16;640.20;2252.80
57030;DHT22;42920;45.306;20.448;2023-08-07T08:02:43;640.50;2227.20
57030;DHT22;42920;45.306;20.448;2023-08-07T08:05:09;640.40;2201.60
57030;DHT22;42920;45.306;20.448;2023-08-07T08:07:39;640.40;2201.60
57030;DHT22;42920;45.306;20.448;2023-08-07T08:10:08;640.20;2201.60
57030;DHT22;42920;45.306;20.448;2023-08-07T08:12:34;640.50;2150.40
57030;DHT22;42920;45.306;20.448;2023-08-07T08:15:00;640.70;2048.00
57030;DHT22;42920;45.306;20.448;2023-08-07T08:17:26;615.20;2201.60
57030;DHT22;42920;45.306;20.448;2023-08-07T08:19:52;614.80;2227.20
57030;DHT22;42920;45.306;20.448;2023-08-07T08:22:18;614.80;2278.40
57030;DHT22;42920;45.306;20.448;2023-08-07T08:24:44;614.50;2355.20
57030;DHT22;42920;45.306;20.448;2023-08-07T08:27:10;589.70;2432.00
57030;DHT22;42920;45.306;20.448;2023-08-07T08:29:35;614.50;2432.00
57030;DHT22;42920;45.306;20.448;2023-08-07T08:32:01;615.30;2432.00
57030;DHT22;42920;45.306;20.448;2023-08-07T08:34:27;640.60;2355.20
57030;DHT22;42920;45.306;20.448;2023-08-07T08:36:53;665.70;2201.60
57030;DHT22;42920;45.306;20.448;2023-08-07T08:39:18;640.60;2278.40
57030;DHT22;42920;45.306;20.448;2023-08-07T08:41:49;640.50;2252.80
57030;DHT22;42920;45.306;20.448;2023-08-07T08:44:15;615.10;2278.40
57030;DHT22;42920;45.306;20.448;2023-08-07T08:46:42;640.20;2201.60
57030;DHT22;42920;45.306;20.448;2023-08-07T08:49:08;665.60;2150.40
57030;DHT22;42920;45.306;20.448;2023-08-07T08:51:35;640.20;2201.60
57030;DHT22;42920;45.306;20.448;2023-08-07T08:54:01;640.30;2304.00
57030;DHT22;42920;45.306;20.448;2023-08-07T08:56:29;640.70;2329.60
57030;DHT22;42920;45.306;20.448;2023-08-07T08:58:55;665.60;2355.20
57030;DHT22;42920;45.306;20.448;2023-08-07T09:01:21;640.70;2201.60
57030;DHT22;42920;45.306;20.448;2023-08-07T09:03:47;640.20;2252.80
57030;DHT22;42920;45.306;20.448;2023-08-07T09:06:13;615.30;2227.20
57030;DHT22;42920;45.306;20.448;2023-08-07T09:08:43;615.10;2329.60
57030;DHT22;42920;45.306;20.448;2023-08-07T09:11:12;615.00;2278.40
57030;DHT22;42920;45.306;20.448;2023-08-07T09:13:40;615.10;2252.80
57030;DHT22;42920;45.306;20.448;2023-08-07T09:16:08;615.00;2252.80
57030;DHT22;42920;45.306;20.448;2023-08-07T09:18:34;614.70;2252.80
57030;DHT22;42920;45.306;20.448;2023-08-07T09:21:01;614.50;2304.00
57030;DHT22;42920;45.306;20.448;2023-08-07T09:23:27;614.50;2355.20
57030;DHT22;42920;45.306;20.448;2023-08-07T09:26:03;614.70;2252.80
57030;DHT22;42920;45.306;20.448;2023-08-07T09:28:30;614.70;2329.60
57030;DHT22;42920;45.306;20.448;2023-08-07T09:30:58;615.10;2380.80
57030;DHT22;42920;45.306;20.448;2023-08-07T09:33:28;615.30;2176.00
57030;DHT22;42920;45.306;20.448;2023-08-07T09:35:58;615.30;2227.20
57030;DHT22;42920;45.306;20.448;2023-08-07T09:38:28;640.10;2022.40
57030;DHT22;42920;45.306;20.448;2023-08-07T09:40:57;640.30;1971.20
57030;DHT22;42920;45.306;20.448;2023-08-07T09:43:24;640.40;2073.60
57030;DHT22;42920;45.306;20.448;2023-08-07T09:45:50;665.70;1971.20
57030;DHT22;42920;45.306;20.448;2023-08-07T09:48:23;665.60;1971.20
57030;DHT22;42920;45.306;20.448;2023-08-07T09:50:50;666.40;1920.00
57030;DHT22;42920;45.306;20.448;2023-08-07T09:53:16;691.50;1945.60
57030;DHT22;42920;45.306;20.448;2023-08-07T09:55:42;691.80;1843.20
57030;DHT22;42920;45.306;20.448;2023-08-07T09:58:12;691.20;1868.80
57030;DHT22;42920;45.306;20.448;2023-08-07T10:00:42;666.40;1868.80
57030;DHT22;42920;45.306;20.448;2023-08-07T10:03:08;691.30;1792.00
57030;DHT22;42920;45.306;20.448;2023-08-07T10:05:34;716.80;1766.40
57030;DHT22;42920;45.306;20.448;2023-08-07T10:07:59;717.20;1792.00
57030;DHT22;42920;45.306;20.448;2023-08-07T10:10:25;691.90;1715.20
57030;DHT22;42920;45.306;20.448;2023-08-07T10:12:52;691.50;1792.00
57030;DHT22;42920;45.306;20.448;2023-08-07T10:15:19;666.50;1766.40
57030;DHT22;42920;45.306;20.448;2023-08-07T10:17:45;691.60;1689.60
57030;DHT22;42920;45.306;20.448;2023-08-07T10:20:12;691.70;1664.00
57030;DHT22;42920;45.306;20.448;2023-08-07T10:22:38;691.90;1612.80
57030;DHT22;42920;45.306;20.448;2023-08-07T10:25:06;716.80;1664.00
57030;DHT22;42920;45.306;20.448;2023-08-07T10:27:34;717.10;1664.00
57030;DHT22;42920;45.306;20.448;2023-08-07T10:30:04;717.50;1689.60
57030;DHT22;42920;45.306;20.448;2023-08-07T10:32:31;717.70;1612.80
57030;DHT22;42920;45.306;20.448;2023-08-07T10:34:58;717.20;1587.20
57030;DHT22;42920;45.306;20.448;2023-08-07T10:37:42;717.50;1612.80
57030;DHT22;42920;45.306;20.448;2023-08-07T10:40:10;716.80;1664.00
57030;DHT22;42920;45.306;20.448;2023-08-07T10:45:18;691.80;1664.00
57030;DHT22;42920;45.306;20.448;2023-08-07T10:48:10;692.10;1638.40
57030;DHT22;42920;45.306;20.448;2023-08-07T10:56:04;717.70;1536.00
57030;DHT22;42920;45.306;20.448;2023-08-07T10:58:37;742.50;1510.40
57030;DHT22;42920;45.306;20.448;2023-08-07T11:04:09;742.60;1459.20
57030;DHT22;42920;45.306;20.448;2023-08-07T11:06:36;742.50;1510.40
57030;DHT22;42920;45.306;20.448;2023-08-07T11:09:04;716.80;1612.80
57030;DHT22;42920;45.306;20.448;2023-08-07T11:11:40;691.90;1612.80
57030;DHT22;42920;45.306;20.448;2023-08-07T11:14:07;692.10;1587.20
57030;DHT22;42920;45.306;20.448;2023-08-07T11:16:36;717.10;1561.60
57030;DHT22;42920;45.306;20.448;2023-08-07T11:19:02;717.70;1587.20
57030;DHT22;42920;45.306;20.448;2023-08-07T11:21:30;742.60;1536.00
57030;DHT22;42920;45.306;20.448;2023-08-07T11:23:56;743.00;1561.60
57030;DHT22;42920;45.306;20.448;2023-08-07T11:26:22;742.60;1587.20
57030;DHT22;42920;45.306;20.448;2023-08-07T11:28:49;717.70;1561.60
57030;DHT22;42920;45.306;20.448;2023-08-07T11:31:14;742.70;1433.60
57030;DHT22;42920;45.306;20.448;2023-08-07T11:33:41;743.00;1408.00
57030;DHT22;42920;45.306;20.448;2023-08-07T11:36:14;742.50;1459.20
57030;DHT22;42920;45.306;20.448;2023-08-07T11:38:44;717.10;1510.40
57030;DHT22;42920;45.306;20.448;2023-08-07T11:41:11;716.80;1484.80
57030;DHT22;42920;45.306;20.448;2023-08-07T11:43:38;691.80;1510.40
57030;DHT22;42920;45.306;20.448;2023-08-07T11:46:09;691.70;1510.40
57030;DHT22;42920;45.306;20.448;2023-08-07T11:48:37;691.20;1561.60
57030;DHT22;42920;45.306;20.448;2023-08-07T11:51:03;666.50;1561.60
57030;DHT22;42920;45.306;20.448;2023-08-07T11:53:32;691.50;1561.60
57030;DHT22;42920;45.306;20.448;2023-08-07T11:58:35;691.40;1561.60
57030;DHT22;42920;45.306;20.448;2023-08-07T12:01:14;691.60;1612.80
57030;DHT22;42920;45.306;20.448;2023-08-07T12:06:34;717.50;1536.00
57030;DHT22;42920;45.306;20.448;2023-08-07T12:09:01;742.60;1561.60
57030;DHT22;42920;45.306;20.448;2023-08-07T12:11:29;742.80;1510.40
57030;DHT22;42920;45.306;20.448;2023-08-07T12:13:54;742.50;1587.20
57030;DHT22;42920;45.306;20.448;2023-08-07T12:16:20;717.40;1510.40
57030;DHT22;42920;45.306;20.448;2023-08-07T12:18:48;717.30;1510.40
57030;DHT22;42920;45.306;20.448;2023-08-07T12:21:16;716.90;1561.60
57030;DHT22;42920;45.306;20.448;2023-08-07T12:23:44;716.80;1587.20
57030;DHT22;42920;45.306;20.448;2023-08-07T12:26:09;716.90;1612.80
57030;DHT22;42920;45.306;20.448;2023-08-07T12:28:35;717.60;1561.60
57030;DHT22;42920;45.306;20.448;2023-08-07T12:31:02;742.60;1536.00
57030;DHT22;42920;45.306;20.448;2023-08-07T12:33:31;743.00;1510.40
57030;DHT22;42920;45.306;20.448;2023-08-07T12:35:58;743.00;1536.00
57030;DHT22;42920;45.306;20.448;2023-08-07T12:38:24;743.10;1484.80
57030;DHT22;42920;45.306;20.448;2023-08-07T12:40:49;743.10;1484.80
57030;DHT22;42920;45.306;20.448;2023-08-07T12:43:15;743.30;1459.20
57030;DHT22;42920;45.306;20.448;2023-08-07T12:45:41;768.10;1433.60
57030;DHT22;42920;45.306;20.448;2023-08-07T12:48:07;743.30;1408.00
57030;DHT22;42920;45.306;20.448;2023-08-07T12:50:33;768.00;1510.40
57030;DHT22;42920;45.306;20.448;2023-08-07T12:52:59;743.30;1510.40
57030;DHT22;42920;45.306;20.448;2023-08-07T12:55:25;768.00;1433.60
57030;DHT22;42920;45.306;20.448;2023-08-07T12:57:55;768.00;1433.60
57030;DHT22;42920;45.306;20.448;2023-08-07T13:00:21;743.00;1459.20
57030;DHT22;42920;45.306;20.448;2023-08-07T13:02:48;743.00;1433.60
57030;DHT22;42920;45.306;20.448;2023-08-07T13:05:15;742.90;1433.60
57030;DHT22;42920;45.306;20.448;2023-08-07T13:07:42;742.80;1433.60
57030;DHT22;42920;45.306;20.448;2023-08-07T13:10:10;743.00;1382.40
57030;DHT22;42920;45.306;20.448;2023-08-07T13:12:38;742.90;1382.40
57030;DHT22;42920;45.306;20.448;2023-08-07T13:15:05;742.60;1459.20
57030;DHT22;42920;45.306;20.448;2023-08-07T13:17:32;743.00;1408.00
57030;DHT22;42920;45.306;20.448;2023-08-07T13:19:59;743.10;1382.40
57030;DHT22;42920;45.306;20.448;2023-08-07T13:22:25;743.30;1408.00
57030;DHT22;42920;45.306;20.448;2023-08-07T13:24:51;743.30;1280.00
57030;DHT22;42920;45.306;20.448;2023-08-07T13:27:18;743.30;1382.40
57030;DHT22;42920;45.306;20.448;2023-08-07T13:29:44;768.00;1382.40
57030;DHT22;42920;45.306;20.448;2023-08-07T13:34:37;768.40;1408.00
57030;DHT22;42920;45.306;20.448;2023-08-07T13:37:06;743.10;1408.00
57030;DHT22;42920;45.306;20.448;2023-08-07T13:39:32;743.10;1433.60
57030;DHT22;42920;45.306;20.448;2023-08-07T13:41:58;743.10;1433.60
57030;DHT22;42920;45.306;20.448;2023-08-07T13:44:25;742.90;1433.60
57030;DHT22;42920;45.306;20.448;2023-08-07T13:46:51;742.50;1433.60
57030;DHT22;42920;45.306;20.448;2023-08-07T13:49:17;742.40;1459.20
57030;DHT22;42920;45.306;20.448;2023-08-07T13:51:43;742.90;1459.20
57030;DHT22;42920;45.306;20.448;2023-08-07T13:54:09;743.10;1433.60
57030;DHT22;42920;45.306;20.448;2023-08-07T13:56:35;742.90;1382.40
57030;DHT22;42920;45.306;20.448;2023-08-07T13:59:01;742.90;1331.20
57030;DHT22;42920;45.306;20.448;2023-08-07T14:01:27;743.00;1356.80
57030;DHT22;42920;45.306;20.448;2023-08-07T14:03:54;742.80;1459.20
57030;DHT22;42920;45.306;20.448;2023-08-07T14:06:20;742.60;1484.80
57030;DHT22;42920;45.306;20.448;2023-08-07T14:08:46;742.50;1459.20
57030;DHT22;42920;45.306;20.448;2023-08-07T14:11:12;742.70;1408.00
57030;DHT22;42920;45.306;20.448;2023-08-07T14:13:40;742.80;1408.00
57030;DHT22;42920;45.306;20.448;2023-08-07T14:16:07;742.80;1433.60
57030;DHT22;42920;45.306;20.448;2023-08-07T14:18:33;742.80;1331.20
57030;DHT22;42920;45.306;20.448;2023-08-07T14:20:59;742.80;1305.60
57030;DHT22;42920;45.306;20.448;2023-08-07T14:23:24;742.70;1356.80
57030;DHT22;42920;45.306;20.448;2023-08-07T14:25:50;742.40;1305.60
57030;DHT22;42920;45.306;20.448;2023-08-07T14:28:18;742.40;1356.80
57030;DHT22;42920;45.306;20.448;2023-08-07T14:30:44;742.70;1331.20
57030;DHT22;42920;45.306;20.448;2023-08-07T14:33:09;742.90;1305.60
57030;DHT22;42920;45.306;20.448;2023-08-07T14:35:35;743.00;1331.20
57030;DHT22;42920;45.306;20.448;2023-08-07T14:38:01;742.60;1305.60
57030;DHT22;42920;45.306;20.448;2023-08-07T14:40:26;742.40;1331.20
57030;DHT22;42920;45.306;20.448;2023-08-07T14:42:54;717.70;1331.20
57030;DHT22;42920;45.306;20.448;2023-08-07T14:45:20;717.50;1331.20
57030;DHT22;42920;45.306;20.448;2023-08-07T14:47:46;717.10;1356.80
57030;DHT22;42920;45.306;20.448;2023-08-07T14:50:12;717.10;1331.20
57030;DHT22;42920;45.306;20.448;2023-08-07T14:52:37;717.10;1356.80
57030;DHT22;42920;45.306;20.448;2023-08-07T14:55:04;717.10;1382.40
57030;DHT22;42920;45.306;20.448;2023-08-07T14:57:29;716.90;1408.00
57030;DHT22;42920;45.306;20.448;2023-08-07T14:59:55;716.80;1382.40
57030;DHT22;42920;45.306;20.448;2023-08-07T15:02:21;692.10;1382.40
57030;DHT22;42920;45.306;20.448;2023-08-07T15:04:46;691.90;1356.80
57030;DHT22;42920;45.306;20.448;2023-08-07T15:07:12;691.80;1382.40
57030;DHT22;42920;45.306;20.448;2023-08-07T15:09:38;691.70;1382.40